createdAt,value
2022-11-20T00:00:00.225Z,-4.3
2022-11-20T00:01:11.890Z,-4.4
2022-11-20T00:02:00.253Z,-4.5
2022-11-20T00:03:00.230Z,-4.5
2022-11-20T00:04:00.512Z,-4.5
2022-11-20T00:05:00.249Z,-4.6
2022-11-20T00:06:00.952Z,-4.5
2022-11-20T00:07:00.294Z,-4.5
2022-11-20T00:08:00.229Z,-4.5
2022-11-20T00:09:00.788Z,-4.5
2022-11-20T00:10:00.219Z,-4.4
2022-11-20T00:11:05.386Z,-4.4
2022-11-20T00:12:00.237Z,-4.4
2022-11-20T00:13:00.267Z,-4.5
2022-11-20T00:14:01.488Z,-4.5
2022-11-20T00:15:00.241Z,-4.5
2022-11-20T00:16:03.108Z,-4.6
2022-11-20T00:17:00.237Z,-4.6
2022-11-20T00:18:00.215Z,-4.6
2022-11-20T00:19:00.746Z,-4.6
2022-11-20T00:20:00.283Z,-4.5
2022-11-20T00:21:01.204Z,-4.5
2022-11-20T00:22:00.234Z,-4.6
2022-11-20T00:23:00.223Z,-4.6
2022-11-20T00:24:00.211Z,-4.6
2022-11-20T00:25:00.237Z,-4.6
2022-11-20T00:26:05.063Z,-4.6
2022-11-20T00:27:00.208Z,-4.6
2022-11-20T00:28:00.203Z,-4.6
2022-11-20T00:29:01.421Z,-4.7
2022-11-20T00:30:00.305Z,-4.7
2022-11-20T00:31:05.951Z,-4.7
2022-11-20T00:32:00.203Z,-4.7
2022-11-20T00:33:00.324Z,-4.6
2022-11-20T00:34:00.229Z,-4.6
2022-11-20T00:35:00.259Z,-4.6
2022-11-20T00:36:01.465Z,-4.6
2022-11-20T00:37:00.242Z,-4.6
2022-11-20T00:38:00.221Z,-4.6
2022-11-20T00:39:00.272Z,-4.5
2022-11-20T00:40:00.200Z,-4.5
2022-11-20T00:41:02.725Z,-4.4
2022-11-20T00:42:00.204Z,-4.4
2022-11-20T00:43:00.231Z,-4.4
2022-11-20T00:44:00.274Z,-4.4
2022-11-20T00:45:00.248Z,-4.5
2022-11-20T00:46:02.238Z,-4.5
2022-11-20T00:47:00.260Z,-4.4
2022-11-20T00:48:00.253Z,-4.5
2022-11-20T00:49:00.262Z,-4.5
2022-11-20T00:50:00.286Z,-4.5
2022-11-20T00:51:00.747Z,-4.5
2022-11-20T00:52:00.277Z,-4.4
2022-11-20T00:53:00.273Z,-4.3
2022-11-20T00:54:00.252Z,-4.3
2022-11-20T00:55:00.272Z,-4.4
2022-11-20T00:56:02.826Z,-4.4
2022-11-20T00:57:00.291Z,-4.4
2022-11-20T00:58:04.269Z,-4.5
2022-11-20T00:59:00.739Z,-4.5
2022-11-20T01:00:00.232Z,-4.5
2022-11-20T01:01:02.975Z,-4.5
2022-11-20T01:02:00.276Z,-4.5
2022-11-20T01:03:00.224Z,-4.5
2022-11-20T01:04:00.329Z,-4.5
2022-11-20T01:05:00.244Z,-4.5
2022-11-20T01:06:01.547Z,-4.4
2022-11-20T01:07:00.252Z,-4.4
2022-11-20T01:08:00.227Z,-4.4
2022-11-20T01:09:04.328Z,-4.4
2022-11-20T01:10:00.205Z,-4.4
2022-11-20T01:11:10.948Z,-4.4
2022-11-20T01:12:00.212Z,-4.4
2022-11-20T01:13:00.257Z,-4.3
2022-11-20T01:14:02.869Z,-4.3
2022-11-20T01:15:00.237Z,-4.3
2022-11-20T01:16:10.683Z,-4.3
2022-11-20T01:17:00.245Z,-4.4
2022-11-20T01:18:00.226Z,-4.4
2022-11-20T01:19:02.102Z,-4.4
2022-11-20T01:20:00.259Z,-4.2
2022-11-20T01:21:04.726Z,-4.2
2022-11-20T01:22:00.307Z,-4.2
2022-11-20T01:23:00.212Z,-4.2
2022-11-20T01:24:01.309Z,-4.2
2022-11-20T01:25:00.215Z,-4.3
2022-11-20T01:26:02.089Z,-4.3
2022-11-20T01:27:00.215Z,-4.3
2022-11-20T01:28:00.335Z,-4.2
2022-11-20T01:29:01.512Z,-4.2
2022-11-20T01:30:01.478Z,-4.2
2022-11-20T01:31:00.478Z,-4.2
2022-11-20T01:32:00.241Z,-4.2
2022-11-20T01:33:00.264Z,-4.2
2022-11-20T01:34:03.843Z,-4.1
2022-11-20T01:35:00.242Z,-4.1
2022-11-20T01:36:05.650Z,-4.1
2022-11-20T01:37:00.198Z,-4.0
2022-11-20T01:38:00.212Z,-4.0
2022-11-20T01:39:03.755Z,-4.0
2022-11-20T01:40:00.301Z,-4.0
2022-11-20T01:41:00.455Z,-4.0
2022-11-20T01:42:00.198Z,-4.0
2022-11-20T01:43:18.277Z,-4.0
2022-11-20T01:44:01.202Z,-4.0
2022-11-20T01:45:00.907Z,-4.0
2022-11-20T01:46:11.187Z,-4.0
2022-11-20T01:47:04.502Z,-4.1
2022-11-20T01:48:00.345Z,-4.1
2022-11-20T01:49:05.381Z,-4.1
2022-11-20T01:50:05.722Z,-4.1
2022-11-20T01:51:02.594Z,-4.1
2022-11-20T01:52:07.312Z,-4.1
2022-11-20T01:53:04.980Z,-4.2
2022-11-20T01:54:05.064Z,-4.1
2022-11-20T01:55:05.438Z,-4.1
2022-11-20T01:56:02.754Z,-4.1
2022-11-20T01:57:01.192Z,-4.1
2022-11-20T01:58:01.593Z,-4.1
2022-11-20T01:59:03.385Z,-4.1
2022-11-20T02:00:05.419Z,-4.1
2022-11-20T02:01:00.617Z,-4.1
2022-11-20T02:02:00.269Z,-4.2
2022-11-20T02:03:04.509Z,-4.2
2022-11-20T02:04:01.341Z,-4.3
2022-11-20T02:05:04.273Z,-4.4
2022-11-20T02:06:13.240Z,-4.4
2022-11-20T02:07:02.425Z,-4.5
2022-11-20T02:08:02.318Z,-4.6
2022-11-20T02:09:00.358Z,-4.6
2022-11-20T02:10:00.411Z,-4.7
2022-11-20T02:11:00.242Z,-4.7
2022-11-20T02:12:01.393Z,-4.7
2022-11-20T02:13:00.488Z,-4.7
2022-11-20T02:14:00.366Z,-4.7
2022-11-20T02:15:00.518Z,-4.7
2022-11-20T02:16:00.865Z,-4.8
2022-11-20T02:17:00.232Z,-4.8
2022-11-20T02:18:00.698Z,-4.8
2022-11-20T02:19:03.705Z,-4.8
2022-11-20T02:20:00.365Z,-4.9
2022-11-20T02:21:07.059Z,-4.9
2022-11-20T02:22:07.298Z,-4.9
2022-11-20T02:23:10.692Z,-4.9
2022-11-20T02:24:09.354Z,-4.9
2022-11-20T02:25:02.962Z,-4.9
2022-11-20T02:26:03.322Z,-4.9
2022-11-20T02:27:07.055Z,-4.9
2022-11-20T02:28:00.423Z,-4.9
2022-11-20T02:29:02.456Z,-4.9
2022-11-20T02:30:03.688Z,-4.9
2022-11-20T02:31:00.757Z,-4.9
2022-11-20T02:32:01.811Z,-4.9
2022-11-20T02:33:00.366Z,-4.9
2022-11-20T02:34:00.274Z,-4.9
2022-11-20T02:35:20.155Z,-5.0
2022-11-20T02:36:00.493Z,-5.0
2022-11-20T02:37:00.425Z,-5.0
2022-11-20T02:38:02.480Z,-5.0
2022-11-20T02:39:00.294Z,-5.0
2022-11-20T02:40:00.636Z,-5.1
2022-11-20T02:41:00.330Z,-5.1
2022-11-20T02:42:00.775Z,-5.1
2022-11-20T02:43:00.369Z,-5.1
2022-11-20T02:44:00.287Z,-5.1
2022-11-20T02:45:00.226Z,-5.1
2022-11-20T02:46:00.221Z,-5.1
2022-11-20T02:47:00.233Z,-5.0
2022-11-20T02:48:00.314Z,-5.0
2022-11-20T02:49:01.558Z,-5.0
2022-11-20T02:50:00.215Z,-4.9
2022-11-20T02:51:00.954Z,-4.9
2022-11-20T02:52:00.580Z,-4.9
2022-11-20T02:53:00.236Z,-4.9
2022-11-20T02:54:00.238Z,-5.0
2022-11-20T02:55:00.253Z,-5.0
2022-11-20T02:56:00.220Z,-5.0
2022-11-20T02:57:00.254Z,-5.0
2022-11-20T02:58:00.301Z,-5.0
2022-11-20T02:59:00.205Z,-5.0
2022-11-20T03:00:00.547Z,-5.0
2022-11-20T03:01:00.277Z,-5.1
2022-11-20T03:02:00.217Z,-5.1
2022-11-20T03:03:00.330Z,-5.1
2022-11-20T03:04:00.356Z,-5.1
2022-11-20T03:05:00.460Z,-5.1
2022-11-20T03:06:00.223Z,-5.1
2022-11-20T03:07:00.540Z,-5.1
2022-11-20T03:08:00.202Z,-5.1
2022-11-20T03:09:00.313Z,-5.2
2022-11-20T03:10:00.414Z,-5.2
2022-11-20T03:11:05.625Z,-5.2
2022-11-20T03:12:00.251Z,-5.2
2022-11-20T03:13:00.224Z,-5.1
2022-11-20T03:14:02.151Z,-5.2
2022-11-20T03:15:00.213Z,-5.2
2022-11-20T03:16:09.322Z,-5.2
2022-11-20T03:17:00.239Z,-5.2
2022-11-20T03:18:00.223Z,-5.2
2022-11-20T03:19:00.266Z,-5.2
2022-11-20T03:20:00.326Z,-5.2
2022-11-20T03:21:00.300Z,-5.2
2022-11-20T03:22:00.593Z,-5.2
2022-11-20T03:23:00.767Z,-5.2
2022-11-20T03:24:01.102Z,-5.2
2022-11-20T03:25:00.247Z,-5.1
2022-11-20T03:26:11.512Z,-5.1
2022-11-20T03:27:00.212Z,-5.1
2022-11-20T03:28:00.223Z,-5.2
2022-11-20T03:29:03.543Z,-5.2
2022-11-20T03:30:00.745Z,-5.2
2022-11-20T03:31:05.153Z,-5.2
2022-11-20T03:32:00.252Z,-5.2
2022-11-20T03:33:00.256Z,-5.3
2022-11-20T03:34:01.533Z,-5.3
2022-11-20T03:35:00.228Z,-5.4
2022-11-20T03:36:02.727Z,-5.4
2022-11-20T03:37:00.214Z,-5.4
2022-11-20T03:38:00.232Z,-5.4
2022-11-20T03:39:00.263Z,-5.5
2022-11-20T03:40:00.327Z,-5.4
2022-11-20T03:41:01.977Z,-5.3
2022-11-20T03:42:00.212Z,-5.3
2022-11-20T03:43:00.220Z,-5.4
2022-11-20T03:44:02.519Z,-5.4
2022-11-20T03:45:00.208Z,-5.4
2022-11-20T03:46:00.602Z,-5.4
2022-11-20T03:47:00.205Z,-5.4
2022-11-20T03:48:00.197Z,-5.4
2022-11-20T03:49:00.618Z,-5.4
2022-11-20T03:50:00.251Z,-5.5
2022-11-20T03:51:11.101Z,-5.5
2022-11-20T03:52:00.202Z,-5.5
2022-11-20T03:53:00.234Z,-5.5
2022-11-20T03:54:05.153Z,-5.5
2022-11-20T03:55:00.259Z,-5.5
2022-11-20T03:56:00.329Z,-5.5
2022-11-20T03:57:00.201Z,-5.5
2022-11-20T03:58:00.236Z,-5.5
2022-11-20T03:59:00.705Z,-5.4
2022-11-20T04:00:00.245Z,-5.4
2022-11-20T04:01:06.549Z,-5.3
2022-11-20T04:02:00.271Z,-5.3
2022-11-20T04:03:01.323Z,-5.3
2022-11-20T04:04:00.329Z,-5.3
2022-11-20T04:05:00.238Z,-5.3
2022-11-20T04:06:02.335Z,-5.3
2022-11-20T04:07:00.271Z,-5.3
2022-11-20T04:08:00.360Z,-5.4
2022-11-20T04:09:00.263Z,-5.4
2022-11-20T04:10:00.245Z,-5.4
2022-11-20T04:11:08.768Z,-5.4
2022-11-20T04:12:00.224Z,-5.4
2022-11-20T04:13:00.503Z,-5.4
2022-11-20T04:14:02.927Z,-5.4
2022-11-20T04:15:00.211Z,-5.4
2022-11-20T04:16:00.231Z,-5.3
2022-11-20T04:17:00.212Z,-5.4
2022-11-20T04:18:00.198Z,-5.4
2022-11-20T04:19:02.095Z,-5.4
2022-11-20T04:20:00.439Z,-5.4
2022-11-20T04:21:00.492Z,-5.5
2022-11-20T04:22:00.363Z,-5.5
2022-11-20T04:23:00.229Z,-5.6
2022-11-20T04:24:00.549Z,-5.6
2022-11-20T04:25:00.239Z,-5.6
2022-11-20T04:26:00.841Z,-5.6
2022-11-20T04:27:00.232Z,-5.6
2022-11-20T04:28:00.228Z,-5.6
2022-11-20T04:29:00.572Z,-5.6
2022-11-20T04:30:00.233Z,-5.6
2022-11-20T04:31:05.835Z,-5.7
2022-11-20T04:32:00.241Z,-5.6
2022-11-20T04:33:00.263Z,-5.6
2022-11-20T04:34:01.931Z,-5.5
2022-11-20T04:35:00.220Z,-5.4
2022-11-20T04:36:01.726Z,-5.3
2022-11-20T04:37:00.673Z,-5.3
2022-11-20T04:38:00.427Z,-5.3
2022-11-20T04:39:03.147Z,-5.4
2022-11-20T04:40:00.248Z,-5.4
2022-11-20T04:41:02.358Z,-5.4
2022-11-20T04:42:00.235Z,-5.4
2022-11-20T04:43:00.254Z,-5.5
2022-11-20T04:44:02.191Z,-5.5
2022-11-20T04:45:00.217Z,-5.6
2022-11-20T04:46:01.159Z,-5.6
2022-11-20T04:47:00.213Z,-5.4
2022-11-20T04:48:00.214Z,-5.4
2022-11-20T04:49:00.522Z,-5.2
2022-11-20T04:50:00.343Z,-5.2
2022-11-20T04:51:03.545Z,-5.2
2022-11-20T04:52:00.278Z,-5.2
2022-11-20T04:53:00.226Z,-5.3
2022-11-20T04:54:00.226Z,-5.3
2022-11-20T04:55:00.226Z,-5.4
2022-11-20T04:56:03.487Z,-5.4
2022-11-20T04:57:00.237Z,-5.4
2022-11-20T04:58:00.211Z,-5.4
2022-11-20T04:59:01.412Z,-5.4
2022-11-20T05:00:00.234Z,-5.5
2022-11-20T05:01:02.621Z,-5.5
2022-11-20T05:02:00.271Z,-5.5
2022-11-20T05:03:00.267Z,-5.5
2022-11-20T05:04:00.225Z,-5.5
2022-11-20T05:05:00.217Z,-5.4
2022-11-20T05:06:00.913Z,-5.3
2022-11-20T05:07:00.336Z,-5.2
2022-11-20T05:08:00.374Z,-5.2
2022-11-20T05:09:00.207Z,-5.2
2022-11-20T05:10:00.242Z,-5.2
2022-11-20T05:11:05.407Z,-5.1
2022-11-20T05:12:00.286Z,-5.1
2022-11-20T05:13:00.364Z,-5.0
2022-11-20T05:14:00.283Z,-5.0
2022-11-20T05:15:00.244Z,-5.0
2022-11-20T05:16:06.830Z,-5.0
2022-11-20T05:17:00.245Z,-5.0
2022-11-20T05:18:00.333Z,-5.0
2022-11-20T05:19:00.247Z,-5.0
2022-11-20T05:20:00.318Z,-5.0
2022-11-20T05:21:00.461Z,-5.0
2022-11-20T05:22:00.260Z,-5.0
2022-11-20T05:23:00.237Z,-5.0
2022-11-20T05:24:00.208Z,-5.1
2022-11-20T05:25:00.239Z,-5.0
2022-11-20T05:26:00.873Z,-5.0
2022-11-20T05:27:00.274Z,-5.1
2022-11-20T05:28:00.273Z,-5.0
2022-11-20T05:29:00.245Z,-5.1
2022-11-20T05:30:00.230Z,-5.1
2022-11-20T05:31:05.851Z,-5.1
2022-11-20T05:32:00.227Z,-5.1
2022-11-20T05:33:00.216Z,-5.1
2022-11-20T05:34:00.248Z,-5.1
2022-11-20T05:35:00.274Z,-5.1
2022-11-20T05:36:00.637Z,-5.1
2022-11-20T05:37:00.328Z,-5.1
2022-11-20T05:38:00.387Z,-5.1
2022-11-20T05:39:01.945Z,-5.2
2022-11-20T05:40:00.402Z,-5.2
2022-11-20T05:41:11.638Z,-5.2
2022-11-20T05:42:00.203Z,-5.2
2022-11-20T05:43:00.719Z,-5.2
2022-11-20T05:44:00.225Z,-5.2
2022-11-20T05:45:03.397Z,-5.2
2022-11-20T05:46:00.843Z,-5.2
2022-11-20T05:47:00.221Z,-5.2
2022-11-20T05:48:00.738Z,-5.2
2022-11-20T05:49:00.216Z,-5.2
2022-11-20T05:50:00.954Z,-5.2
2022-11-20T05:51:01.969Z,-5.2
2022-11-20T05:52:00.219Z,-5.1
2022-11-20T05:53:00.584Z,-5.2
2022-11-20T05:54:00.274Z,-5.2
2022-11-20T05:55:00.268Z,-5.3
2022-11-20T05:56:03.857Z,-5.3
2022-11-20T05:57:00.201Z,-5.3
2022-11-20T05:58:00.218Z,-5.4
2022-11-20T05:59:00.225Z,-5.4
2022-11-20T06:00:00.745Z,-5.4
2022-11-20T06:01:04.927Z,-5.4
2022-11-20T06:02:00.225Z,-5.4
2022-11-20T06:03:00.439Z,-5.5
2022-11-20T06:04:00.219Z,-5.5
2022-11-20T06:05:00.238Z,-5.5
2022-11-20T06:06:01.916Z,-5.5
2022-11-20T06:07:00.285Z,-5.4
2022-11-20T06:08:00.609Z,-5.3
2022-11-20T06:09:00.196Z,-5.2
2022-11-20T06:10:00.338Z,-5.3
2022-11-20T06:11:06.841Z,-5.4
2022-11-20T06:12:00.298Z,-5.4
2022-11-20T06:13:00.392Z,-5.5
2022-11-20T06:14:00.223Z,-5.5
2022-11-20T06:15:00.217Z,-5.5
2022-11-20T06:16:00.456Z,-5.6
2022-11-20T06:17:00.309Z,-5.6
2022-11-20T06:18:00.196Z,-5.6
2022-11-20T06:19:00.221Z,-5.7
2022-11-20T06:20:00.471Z,-5.7
2022-11-20T06:21:01.475Z,-5.7
2022-11-20T06:22:00.228Z,-5.7
2022-11-20T06:23:00.263Z,-5.7
2022-11-20T06:24:00.224Z,-5.8
2022-11-20T06:25:00.234Z,-5.8
2022-11-20T06:26:03.267Z,-5.8
2022-11-20T06:27:00.230Z,-5.8
2022-11-20T06:28:00.211Z,-5.9
2022-11-20T06:29:00.283Z,-5.8
2022-11-20T06:30:00.207Z,-5.8
2022-11-20T06:31:00.488Z,-5.6
2022-11-20T06:32:00.640Z,-5.6
2022-11-20T06:33:00.557Z,-5.6
2022-11-20T06:34:01.237Z,-5.6
2022-11-20T06:35:00.251Z,-5.6
2022-11-20T06:36:05.631Z,-5.5
2022-11-20T06:37:00.217Z,-5.4
2022-11-20T06:38:00.245Z,-5.4
2022-11-20T06:39:00.790Z,-5.4
2022-11-20T06:40:00.231Z,-5.3
2022-11-20T06:41:00.227Z,-5.1
2022-11-20T06:42:00.201Z,-5.0
2022-11-20T06:43:00.234Z,-4.9
2022-11-20T06:44:00.249Z,-4.8
2022-11-20T06:45:00.267Z,-4.7
2022-11-20T06:46:00.207Z,-4.6
2022-11-20T06:47:00.350Z,-4.5
2022-11-20T06:48:00.203Z,-4.4
2022-11-20T06:49:00.229Z,-4.4
2022-11-20T06:50:00.316Z,-4.2
2022-11-20T06:51:03.210Z,-4.1
2022-11-20T06:52:00.220Z,-3.9
2022-11-20T06:53:00.888Z,-3.9
2022-11-20T06:54:00.241Z,-3.7
2022-11-20T06:55:00.231Z,-3.6
2022-11-20T06:56:00.275Z,-3.5
2022-11-20T06:57:00.199Z,-3.3
2022-11-20T06:58:00.208Z,-3.2
2022-11-20T06:59:03.515Z,-3.1
2022-11-20T07:00:00.278Z,-3.0
2022-11-20T07:01:01.779Z,-2.8
2022-11-20T07:02:00.308Z,-2.6
2022-11-20T07:03:03.976Z,-2.5
2022-11-20T07:04:00.415Z,-2.5
2022-11-20T07:05:00.233Z,-2.5
2022-11-20T07:06:01.424Z,-2.3
2022-11-20T07:07:00.297Z,-2.2
2022-11-20T07:08:00.352Z,-2.2
2022-11-20T07:09:00.192Z,-2.1
2022-11-20T07:10:00.226Z,-2.1
2022-11-20T07:11:02.752Z,-2.1
2022-11-20T07:12:00.319Z,-2.0
2022-11-20T07:13:00.197Z,-2.0
2022-11-20T07:14:00.254Z,-1.9
2022-11-20T07:15:00.265Z,-1.8
2022-11-20T07:16:03.766Z,-1.8
2022-11-20T07:17:00.242Z,-1.7
2022-11-20T07:18:00.314Z,-1.6
2022-11-20T07:19:00.235Z,-1.7
2022-11-20T07:20:00.266Z,-2.1
2022-11-20T07:21:02.175Z,-2.2
2022-11-20T07:22:00.259Z,-2.2
2022-11-20T07:23:00.293Z,-2.1
2022-11-20T07:24:00.246Z,-2.3
2022-11-20T07:25:00.424Z,-2.3
2022-11-20T07:26:05.156Z,-2.4
2022-11-20T07:27:00.441Z,-2.2
2022-11-20T07:28:00.915Z,-2.0
2022-11-20T07:29:00.472Z,-2.0
2022-11-20T07:30:00.701Z,-2.0
2022-11-20T07:31:00.295Z,-2.0
2022-11-20T07:32:00.213Z,-2.1
2022-11-20T07:33:00.213Z,-2.3
2022-11-20T07:34:00.376Z,-2.4
2022-11-20T07:35:00.274Z,-2.7
2022-11-20T07:36:01.042Z,-2.8
2022-11-20T07:37:00.200Z,-3.1
2022-11-20T07:38:00.265Z,-3.0
2022-11-20T07:39:00.564Z,-2.9
2022-11-20T07:40:00.255Z,-2.7
2022-11-20T07:41:00.395Z,-2.7
2022-11-20T07:42:00.217Z,-2.7
2022-11-20T07:43:00.213Z,-2.6
2022-11-20T07:44:01.050Z,-2.5
2022-11-20T07:45:00.381Z,-2.4
2022-11-20T07:46:00.192Z,-2.5
2022-11-20T07:47:00.663Z,-2.4
2022-11-20T07:48:00.293Z,-2.4
2022-11-20T07:49:00.194Z,-2.2
2022-11-20T07:50:00.223Z,-1.9
2022-11-20T07:51:00.264Z,-1.8
2022-11-20T07:52:04.400Z,-1.7
2022-11-20T07:53:01.234Z,-1.7
2022-11-20T07:54:00.287Z,-1.9
2022-11-20T07:55:00.238Z,-1.8
2022-11-20T07:56:01.431Z,-1.8
2022-11-20T07:57:00.211Z,-1.9
2022-11-20T07:58:00.193Z,-1.9
2022-11-20T07:59:00.335Z,-1.8
2022-11-20T08:00:00.260Z,-1.9
2022-11-20T08:01:04.211Z,-1.9
2022-11-20T08:02:00.214Z,-2.1
2022-11-20T08:03:02.616Z,-2.0
2022-11-20T08:04:00.218Z,-1.9
2022-11-20T08:05:00.247Z,-1.7
2022-11-20T08:06:01.651Z,-1.5
2022-11-20T08:07:00.343Z,-1.5
2022-11-20T08:08:00.237Z,-1.5
2022-11-20T08:09:00.233Z,-1.3
2022-11-20T08:10:00.247Z,-1.2
2022-11-20T08:11:00.333Z,-1.1
2022-11-20T08:12:00.211Z,-1.0
2022-11-20T08:13:00.217Z,-1.0
2022-11-20T08:14:00.457Z,-0.9
2022-11-20T08:15:00.227Z,-0.9
2022-11-20T08:16:00.199Z,-0.8
2022-11-20T08:17:00.252Z,-0.9
2022-11-20T08:18:28.835Z,-0.9
2022-11-20T08:19:00.203Z,-0.9
2022-11-20T08:20:00.243Z,-0.9
2022-11-20T08:21:03.103Z,-1.0
2022-11-20T08:22:00.195Z,-0.9
2022-11-20T08:23:01.722Z,-0.8
2022-11-20T08:24:00.256Z,-0.7
2022-11-20T08:25:00.551Z,-0.6
2022-11-20T08:26:00.257Z,-0.4
2022-11-20T08:27:00.266Z,-0.4
2022-11-20T08:28:08.985Z,-0.5
2022-11-20T08:29:00.394Z,-0.5
2022-11-20T08:30:00.221Z,-0.4
2022-11-20T08:31:01.345Z,-0.3
2022-11-20T08:32:00.197Z,-0.5
2022-11-20T08:33:02.710Z,-0.7
2022-11-20T08:34:00.253Z,-0.6
2022-11-20T08:35:00.231Z,-0.6
2022-11-20T08:36:01.460Z,-0.5
2022-11-20T08:37:01.731Z,-0.5
2022-11-20T08:38:00.236Z,-0.6
2022-11-20T08:39:00.832Z,-0.6
2022-11-20T08:40:00.228Z,-0.4
2022-11-20T08:41:02.249Z,-0.3
2022-11-20T08:42:00.257Z,-0.3
2022-11-20T08:43:00.318Z,-0.1
2022-11-20T08:44:02.345Z,-0.0
2022-11-20T08:45:00.226Z,-0.1
2022-11-20T08:46:00.375Z,-0.1
2022-11-20T08:47:00.777Z,-0.1
2022-11-20T08:48:02.787Z,-0.3
2022-11-20T08:49:00.273Z,-0.5
2022-11-20T08:50:00.228Z,-0.8
2022-11-20T08:51:00.447Z,-1.0
2022-11-20T08:52:00.203Z,-1.3
2022-11-20T08:53:04.570Z,-1.6
2022-11-20T08:54:00.343Z,-1.8
2022-11-20T08:55:00.442Z,-1.9
2022-11-20T08:56:00.271Z,-2.1
2022-11-20T08:57:00.205Z,-2.1
2022-11-20T08:58:03.740Z,-2.2
2022-11-20T08:59:31.263Z,-2.2
2022-11-20T09:00:07.164Z,-2.2
2022-11-20T09:01:00.234Z,-2.3
2022-11-20T09:02:00.218Z,-2.3
2022-11-20T09:03:00.756Z,-2.3
2022-11-20T09:04:00.202Z,-2.4
2022-11-20T09:05:00.242Z,-2.4
2022-11-20T09:06:02.831Z,-2.4
2022-11-20T09:07:00.324Z,-2.4
2022-11-20T09:08:00.235Z,-2.4
2022-11-20T09:09:06.083Z,-2.5
2022-11-20T09:10:22.633Z,-2.5
2022-11-20T09:11:00.229Z,-2.5
2022-11-20T09:12:00.212Z,-2.6
2022-11-20T09:13:00.597Z,-2.6
2022-11-20T09:14:00.322Z,-2.6
2022-11-20T09:15:00.215Z,-2.6
2022-11-20T09:16:02.496Z,-2.6
2022-11-20T09:17:00.233Z,-2.6
2022-11-20T09:18:02.609Z,-2.7
2022-11-20T09:19:40.615Z,-2.7
2022-11-20T09:20:00.253Z,-2.7
2022-11-20T09:21:01.965Z,-2.6
2022-11-20T09:22:00.256Z,-2.6
2022-11-20T09:23:00.191Z,-2.6
2022-11-20T09:24:00.238Z,-2.6
2022-11-20T09:25:00.219Z,-2.5
2022-11-20T09:26:02.512Z,-2.4
2022-11-20T09:27:01.965Z,-2.4
2022-11-20T09:28:00.315Z,-2.4
2022-11-20T09:29:00.293Z,-2.4
2022-11-20T09:30:00.196Z,-2.4
2022-11-20T09:31:00.287Z,-2.4
2022-11-20T09:32:00.195Z,-2.4
2022-11-20T09:33:00.264Z,-2.4
2022-11-20T09:34:00.321Z,-2.3
2022-11-20T09:36:00.251Z,-2.3
2022-11-20T09:37:03.008Z,-2.3
2022-11-20T09:38:04.648Z,-2.3
2022-11-20T09:39:00.247Z,-2.3
2022-11-20T09:40:00.654Z,-2.3
2022-11-20T09:41:05.428Z,-2.3
2022-11-20T09:42:11.191Z,-2.3
2022-11-20T09:43:00.201Z,-2.3
2022-11-20T09:44:10.182Z,-2.3
2022-11-20T09:45:13.444Z,-2.3
2022-11-20T09:46:16.920Z,-2.3
2022-11-20T09:47:08.100Z,-2.3
2022-11-20T09:48:18.155Z,-2.2
2022-11-20T09:49:20.481Z,-2.2
2022-11-20T09:50:19.380Z,-2.1
2022-11-20T09:51:04.504Z,-2.1
2022-11-20T09:52:18.703Z,-2.1
2022-11-20T09:53:02.449Z,-2.1
2022-11-20T09:54:13.579Z,-2.1
2022-11-20T09:55:02.342Z,-2.1
2022-11-20T09:56:02.552Z,-2.1
2022-11-20T09:57:03.349Z,-2.1
2022-11-20T09:58:00.321Z,-2.2
2022-11-20T09:59:06.098Z,-2.1
2022-11-20T10:00:03.781Z,-2.1
2022-11-20T10:01:09.967Z,-2.1
2022-11-20T10:02:02.781Z,-2.2
2022-11-20T10:03:02.605Z,-2.2
2022-11-20T10:04:15.775Z,-2.1
2022-11-20T10:05:13.428Z,-2.1
2022-11-20T10:06:02.625Z,-2.1
2022-11-20T10:07:32.612Z,-2.0
2022-11-20T10:08:17.609Z,-2.1
2022-11-20T10:09:00.185Z,-2.1
2022-11-20T10:10:00.572Z,-2.1
2022-11-20T10:11:15.909Z,-2.1
2022-11-20T10:12:19.170Z,-2.0
2022-11-20T10:13:20.127Z,-2.0
2022-11-20T10:14:07.509Z,-2.0
2022-11-20T10:15:10.163Z,-2.0
2022-11-20T10:16:17.636Z,-2.0
2022-11-20T10:17:15.867Z,-2.0
2022-11-20T10:18:18.688Z,-2.0
2022-11-20T10:19:19.869Z,-1.9
2022-11-20T10:20:16.555Z,-1.9
2022-11-20T10:21:18.696Z,-1.9
2022-11-20T10:22:20.125Z,-1.9
2022-11-20T10:23:22.756Z,-1.8
2022-11-20T10:24:20.122Z,-1.8
2022-11-20T10:25:14.023Z,-1.8
2022-11-20T10:26:03.637Z,-1.8
2022-11-20T10:27:15.839Z,-1.7
2022-11-20T10:28:08.242Z,-1.7
2022-11-20T10:29:10.776Z,-1.8
2022-11-20T10:30:08.786Z,-1.7
2022-11-20T10:31:07.193Z,-1.7
2022-11-20T10:32:04.379Z,-1.7
2022-11-20T10:33:06.101Z,-1.7
2022-11-20T10:34:11.973Z,-1.7
2022-11-20T10:35:03.905Z,-1.7
2022-11-20T10:36:08.430Z,-1.6
2022-11-20T10:37:13.140Z,-1.6
2022-11-20T10:38:05.291Z,-1.6
2022-11-20T10:39:10.495Z,-1.6
2022-11-20T10:40:20.125Z,-1.6
2022-11-20T10:41:02.962Z,-1.6
2022-11-20T10:42:00.597Z,-1.6
2022-11-20T10:43:06.966Z,-1.6
2022-11-20T10:44:10.141Z,-1.6
2022-11-20T10:45:15.524Z,-1.6
2022-11-20T10:46:08.730Z,-1.6
2022-11-20T10:47:00.206Z,-1.7
2022-11-20T10:48:07.584Z,-1.7
2022-11-20T10:49:00.223Z,-1.7
2022-11-20T10:50:05.833Z,-1.7
2022-11-20T10:51:20.226Z,-1.6
2022-11-20T10:52:03.456Z,-1.6
2022-11-20T10:53:20.109Z,-1.7
2022-11-20T10:54:17.533Z,-1.7
2022-11-20T10:55:11.159Z,-1.7
2022-11-20T10:56:07.323Z,-1.7
2022-11-20T10:57:16.464Z,-1.6
2022-11-20T10:58:13.391Z,-1.6
2022-11-20T10:59:04.491Z,-1.6
2022-11-20T11:00:04.403Z,-1.6
2022-11-20T11:01:19.206Z,-1.6
2022-11-20T11:02:03.193Z,-1.6
2022-11-20T11:03:00.378Z,-1.5
2022-11-20T11:04:01.075Z,-1.5
2022-11-20T11:05:14.226Z,-1.5
2022-11-20T11:06:07.038Z,-1.5
2022-11-20T11:07:17.588Z,-1.5
2022-11-20T11:08:00.680Z,-1.5
2022-11-20T11:09:06.427Z,-1.5
2022-11-20T11:10:00.238Z,-1.5
2022-11-20T11:11:09.576Z,-1.5
2022-11-20T11:12:04.344Z,-1.5
2022-11-20T11:13:00.243Z,-1.5
2022-11-20T11:14:09.603Z,-1.5
2022-11-20T11:15:00.229Z,-1.5
2022-11-20T11:16:00.264Z,-1.5
2022-11-20T11:17:00.204Z,-1.5
2022-11-20T11:18:00.223Z,-1.5
2022-11-20T11:19:12.624Z,-1.5
2022-11-20T11:20:02.246Z,-1.5
2022-11-20T11:21:03.231Z,-1.5
2022-11-20T11:22:10.577Z,-1.4
2022-11-20T11:23:00.498Z,-1.4
2022-11-20T11:24:19.661Z,-1.4
2022-11-20T11:25:00.695Z,-1.4
2022-11-20T11:26:01.674Z,-1.3
2022-11-20T11:27:02.883Z,-1.3
2022-11-20T11:28:03.160Z,-1.3
2022-11-20T11:29:02.723Z,-1.3
2022-11-20T11:30:10.913Z,-1.2
2022-11-20T11:31:00.292Z,-1.2
2022-11-20T11:32:11.783Z,-1.2
2022-11-20T11:33:05.238Z,-1.2
2022-11-20T11:34:03.944Z,-1.2
2022-11-20T11:35:01.805Z,-1.2
2022-11-20T11:36:03.308Z,-1.2
2022-11-20T11:37:02.007Z,-1.2
2022-11-20T11:38:05.380Z,-1.1
2022-11-20T11:39:01.217Z,-1.1
2022-11-20T11:40:22.776Z,-1.1
2022-11-20T11:41:01.218Z,-1.1
2022-11-20T11:42:00.928Z,-1.1
2022-11-20T11:43:05.020Z,-1.1
2022-11-20T11:44:13.417Z,-1.1
2022-11-20T11:45:00.537Z,-1.1
2022-11-20T11:46:00.383Z,-1.1
2022-11-20T11:47:00.599Z,-1.1
2022-11-20T11:48:02.780Z,-1.1
2022-11-20T11:49:04.465Z,-1.1
2022-11-20T11:50:01.499Z,-1.1
2022-11-20T11:51:00.195Z,-1.1
2022-11-20T11:52:07.589Z,-1.1
2022-11-20T11:53:05.660Z,-1.0
2022-11-20T11:54:02.278Z,-1.0
2022-11-20T11:55:08.438Z,-1.0
2022-11-20T11:56:08.076Z,-1.0
2022-11-20T11:57:03.359Z,-1.0
2022-11-20T11:58:10.180Z,-1.0
2022-11-20T11:59:09.310Z,-1.0
2022-11-20T12:00:04.349Z,-0.9
2022-11-20T12:01:10.148Z,-0.9
2022-11-20T12:02:14.107Z,-0.9
2022-11-20T12:03:07.574Z,-0.8
2022-11-20T12:04:04.915Z,-0.8
2022-11-20T12:05:08.990Z,-0.8
2022-11-20T12:06:06.161Z,-0.8
2022-11-20T12:07:38.783Z,-0.8
2022-11-20T12:08:20.149Z,-0.8
2022-11-20T12:09:04.600Z,-0.8
2022-11-20T12:10:01.810Z,-0.8
2022-11-20T12:11:10.161Z,-0.7
2022-11-20T12:12:12.803Z,-0.8
2022-11-20T12:13:11.127Z,-0.8
2022-11-20T12:14:09.760Z,-0.8
2022-11-20T12:15:00.812Z,-0.8
2022-11-20T12:17:01.739Z,-0.8
2022-11-20T12:18:00.704Z,-0.8
2022-11-20T12:19:00.285Z,-0.8
2022-11-20T12:20:00.265Z,-0.8
2022-11-20T12:22:20.134Z,-0.7
2022-11-20T12:23:14.788Z,-0.7
2022-11-20T12:24:18.850Z,-0.7
2022-11-20T12:25:12.499Z,-0.7
2022-11-20T12:26:08.304Z,-0.7
2022-11-20T12:27:03.448Z,-0.7
2022-11-20T12:28:18.448Z,-0.7
2022-11-20T12:29:20.217Z,-0.7
2022-11-20T12:30:07.188Z,-0.7
2022-11-20T12:31:13.937Z,-0.7
2022-11-20T12:32:20.144Z,-0.6
2022-11-20T12:33:20.102Z,-0.6
2022-11-20T12:34:20.110Z,-0.6
2022-11-20T12:35:11.623Z,-0.6
2022-11-20T12:36:07.678Z,-0.6
2022-11-20T12:37:19.884Z,-0.7
2022-11-20T12:38:20.133Z,-0.7
2022-11-20T12:39:13.412Z,-0.7
2022-11-20T12:40:17.558Z,-0.7
2022-11-20T12:41:14.631Z,-0.7
2022-11-20T12:42:13.842Z,-0.7
2022-11-20T12:43:15.144Z,-0.7
2022-11-20T12:44:16.235Z,-0.6
2022-11-20T12:45:02.232Z,-0.6
2022-11-20T12:46:13.435Z,-0.6
2022-11-20T12:47:10.147Z,-0.6
2022-11-20T12:48:19.124Z,-0.6
2022-11-20T12:49:08.871Z,-0.6
2022-11-20T12:50:11.179Z,-0.6
2022-11-20T12:51:20.188Z,-0.6
2022-11-20T12:52:14.905Z,-0.6
2022-11-20T12:53:10.803Z,-0.6
2022-11-20T12:54:20.120Z,-0.6
2022-11-20T12:55:10.763Z,-0.6
2022-11-20T12:56:16.662Z,-0.5
2022-11-20T12:57:13.788Z,-0.5
2022-11-20T12:58:20.111Z,-0.4
2022-11-20T12:59:10.155Z,-0.4
2022-11-20T13:00:13.941Z,-0.4
2022-11-20T13:01:18.685Z,-0.4
2022-11-20T13:02:18.964Z,-0.4
2022-11-20T13:03:13.221Z,-0.4
2022-11-20T13:04:10.586Z,-0.4
2022-11-20T13:05:13.118Z,-0.5
2022-11-20T13:06:12.293Z,-0.5
2022-11-20T13:07:03.651Z,-0.5
2022-11-20T13:08:00.979Z,-0.4
2022-11-20T13:09:02.120Z,-0.4
2022-11-20T13:10:00.808Z,-0.4
2022-11-20T13:11:11.197Z,-0.4
2022-11-20T13:12:13.456Z,-0.4
2022-11-20T13:20:01.020Z,-0.4
2022-11-20T13:21:00.277Z,-0.4
2022-11-20T13:22:00.452Z,-0.4
2022-11-20T13:23:00.246Z,-0.4
2022-11-20T13:24:20.631Z,-0.4
2022-11-20T13:25:00.225Z,-0.4
2022-11-20T13:26:20.172Z,-0.4
2022-11-20T13:27:01.333Z,-0.4
2022-11-20T13:28:10.664Z,-0.4